Shawano, WI

10:36 AM CST on February 22, 2017 (GMT -0600)
Willow Wood | | Change Station
Active Advisory: Flood Warning

Elev 810 ft 44.79 °N, 88.58 °W | Updated 24 seconds ago

Scattered Clouds
Scattered Clouds
47.5 °F
Feels Like 48 °F
N
0.6
Wind Variable Wind from North
Gusts 3.7 mph

Today
High -- | Low -- °F
--% Chance of Precip.
Yesterday
High -- | Low -- °F
Precip. -- in
Pressure 29.61 in
Visibility 10.0 miles
Clouds Scattered Clouds 12000 ft
Windchill 48 °F
Dew Point 43 °F
Humidity 83%
Rainfall 0.00 in
Snow Depth Not available.
6:43 AM 5:32 PM
Waning Crescent, 16% visible
METAR KEZS 221615Z AUTO 17003KT 10SM SCT120 11/06 A2961 RMK AO2 T01090059
Pressure 29.61 in
Visibility 10.0 miles
Clouds Scattered Clouds 12000 ft
Windchill 48 °F
Dew Point 43 °F
Humidity 83%
Rainfall 0.00 in
Snow Depth Not available.
6:43 AM 5:32 PM
Waning Crescent, 16% visible
METAR KEZS 221615Z AUTO 17003KT 10SM SCT120 11/06 A2961 RMK AO2 T01090059

Get Your Daily Forecast Email!

Thanks for signing up!

Be on the lookout for a verification email in your inbox.

You'll start receiving the daily forecast at 8 AM.

×

10-Day Weather Forecast

Almanac

Astronomy

Feb. 22, 2017 Rise Set
Actual Time
Civil Twilight
Nautical Twilight
Astronomical Twilight
Moon
Length of Visible Light
Length of Day
Tomorrow will be .
, % of the Moon is Illuminated

Today's Extremes

State Highs State Lows

Community

WunderPhotos

Upload Photos

1,962,540 photos uploaded!

WunderBlog® & News

Nearby

Air Quality

  Air Quality AQ Index Pollutant
Not available.

Snow Depth

Station Depth Elevation

Earthquake Activity

City Distance Mag. Time & Date
Minimum magnitude displayed is 2.5.

Coastal Water Temperatures

Place Temperature

Stations

Nearby Weather Stations

Station Location Temp. Windchill Dew Point Humidity Wind Precip. Elev Updated Type
                   

Watches & Warnings

Flood Warning
Issued: 10:09 AM CST Feb. 22, 2017 – National Weather Service

The Flood Warning continues for
the Wolf River near Shiocton.
* At 7:47 am Wednesday the stage was 9.6 feet.
* Flood stage is 12.0 feet.
* Minor flooding is forecast.
* Forecast... rise above flood stage by early Sunday morning and
continue to rise to near 12.1 feet by Sunday morning. The river
will fall below flood stage by Monday early afternoon.
* At 12.0 feet... flooding is confined to lowland and agricultural
land. The entire boat Landing in Shiocton is under several feet of
floodwaters. Water is surrounding lowland areas around homes on
Mill Street and island street .


Lat... Lon 4468 8852 4433 8848 4434 8867 4440 8867
      4450 8863 4468 8867